Time;durP1;ratioP1;P1;durP2;ratioP2;P2;SDS_P1;SDS_P2;PMS_P1;PMS_P2;Temp;Humidity;BMP_temperature;BMP_pressure;BME280_temperature;BME280_humidity;BME280_pressure;Samples;Min_cycle;Max_cycle;Signal;HPM_P1;HPM_P2
2022/11/17 00:01:45;;;;;;;27.10;17.45;;;;;;;;;;5107071;27;20031;-71
2022/11/17 00:04:11;;;;;;;23.80;16.20;;;;;;;;;;5107022;27;20051;-70
2022/11/17 00:06:37;;;;;;;23.58;17.05;;;;;;;;;;5122436;27;20107;-70
2022/11/17 00:09:03;;;;;;;26.38;17.40;;;;;;;;;;5117792;27;20388;-70
2022/11/17 00:14:31;;;;;;;26.52;16.85;;;;;;;;;;5107751;27;20057;-70
2022/11/17 00:14:35;;;;;;;20.73;14.68;;;;;;;;;;5107798;27;20062;-70
2022/11/17 00:17:12;;;;;;;24.92;16.73;;;;;;;;;;5123179;27;20039;-70
2022/11/17 00:22:24;;;;;;;23.98;14.70;;;;;;;;;;5124503;27;20560;-70
2022/11/17 00:24:50;;;;;;;20.23;14.40;;;;;;;;;;5124802;27;20027;-69
2022/11/17 00:27:16;;;;;;;21.02;14.05;;;;;;;;;;5122098;27;20047;-69
2022/11/17 00:29:42;;;;;;;24.15;16.00;;;;;;;;;;5106349;27;20073;-69
2022/11/17 00:34:57;;;;;;;21.58;15.25;;;;;;;;;;5122413;27;20039;-69
2022/11/17 00:37:24;;;;;;;23.70;15.68;;;;;;;;;;5125232;28;20074;-69
2022/11/17 00:39:50;;;;;;;21.98;13.65;;;;;;;;;;5123939;28;20198;-69
2022/11/17 00:42:16;;;;;;;20.33;14.23;;;;;;;;;;5090065;28;20032;-70
2022/11/17 00:44:42;;;;;;;20.65;14.57;;;;;;;;;;5105428;28;20536;-69
2022/11/17 00:47:08;;;;;;;23.60;14.35;;;;;;;;;;5097961;28;20506;-69
2022/11/17 00:49:35;;;;;;;18.88;14.27;;;;;;;;;;5120456;28;20036;-69
2022/11/17 00:52:02;;;;;;;20.30;13.68;;;;;;;;;;5125727;27;20399;-69
2022/11/17 00:54:28;;;;;;;21.27;14.40;;;;;;;;;;5109667;28;20192;-69
2022/11/17 00:56:54;;;;;;;17.25;13.57;;;;;;;;;;5121959;27;20246;-69
2022/11/17 00:59:20;;;;;;;20.90;14.13;;;;;;;;;;5129469;27;20598;-69
2022/11/17 01:01:47;;;;;;;18.40;12.27;;;;;;;;;;5132640;27;20042;-69
2022/11/17 01:04:14;;;;;;;21.05;13.45;;;;;;;;;;5128922;27;20138;-69
2022/11/17 01:06:42;;;;;;;19.65;13.23;;;;;;;;;;5109910;27;20102;-69
2022/11/17 01:09:15;;;;;;;23.23;13.93;;;;;;;;;;5120084;27;20548;-69
2022/11/17 01:11:42;;;;;;;16.42;13.07;;;;;;;;;;5131553;27;20050;-69
2022/11/17 01:14:10;;;;;;;21.65;12.85;;;;;;;;;;5130037;27;20080;-69
2022/11/17 01:16:36;;;;;;;16.73;11.90;;;;;;;;;;5127734;27;20404;-68
2022/11/17 01:19:03;;;;;;;18.60;11.70;;;;;;;;;;5123758;27;20043;-69
2022/11/17 01:21:30;;;;;;;15.90;11.13;;;;;;;;;;5111182;27;20537;-69
2022/11/17 01:23:57;;;;;;;16.17;12.63;;;;;;;;;;5115498;27;20128;-69
2022/11/17 01:26:25;;;;;;;18.60;12.85;;;;;;;;;;5106377;27;20049;-69
2022/11/17 01:28:51;;;;;;;16.55;12.43;;;;;;;;;;5124829;27;20039;-69
2022/11/17 01:31:21;;;;;;;19.83;13.52;;;;;;;;;;5111220;27;20046;-69
2022/11/17 01:33:48;;;;;;;18.33;12.48;;;;;;;;;;5123572;27;20043;-69
2022/11/17 01:36:16;;;;;;;14.18;11.52;;;;;;;;;;5124262;27;20063;-69
2022/11/17 01:38:42;;;;;;;18.08;11.65;;;;;;;;;;5127211;27;20035;-69
2022/11/17 01:41:16;;;;;;;12.27;10.80;;;;;;;;;;5125844;27;20434;-69
2022/11/17 01:43:44;;;;;;;16.10;11.90;;;;;;;;;;5123626;27;20035;-69
2022/11/17 01:46:26;;;;;;;15.25;11.32;;;;;;;;;;5119560;27;20042;-69
2022/11/17 01:48:53;;;;;;;15.82;12.23;;;;;;;;;;5106935;27;20046;-69
2022/11/17 01:51:19;;;;;;;14.88;10.38;;;;;;;;;;5125272;27;20035;-69
2022/11/17 01:53:46;;;;;;;14.18;11.38;;;;;;;;;;5109253;27;20046;-69
2022/11/17 01:56:17;;;;;;;15.85;11.02;;;;;;;;;;5107952;27;20089;-68
2022/11/17 01:58:46;;;;;;;13.20;10.38;;;;;;;;;;5129678;27;20506;-69
2022/11/17 02:01:12;;;;;;;16.48;12.07;;;;;;;;;;5119121;27;20136;-69
2022/11/17 02:03:38;;;;;;;13.85;11.13;;;;;;;;;;5098942;28;20080;-69
2022/11/17 02:06:23;;;;;;;15.45;12.25;;;;;;;;;;5089011;28;20425;-69
2022/11/17 02:08:51;;;;;;;13.32;11.27;;;;;;;;;;5078039;28;20039;-68
2022/11/17 02:11:18;;;;;;;15.95;11.57;;;;;;;;;;5080478;28;20040;-69
2022/11/17 02:13:44;;;;;;;14.73;10.50;;;;;;;;;;5084442;28;20429;-69
2022/11/17 02:16:14;;;;;;;18.33;11.45;;;;;;;;;;5083018;28;20135;-69
2022/11/17 02:18:41;;;;;;;14.13;10.75;;;;;;;;;;5085368;28;20036;-69
2022/11/17 02:21:10;;;;;;;14.57;10.70;;;;;;;;;;5081301;28;20040;-69
2022/11/17 02:23:36;;;;;;;13.70;10.25;;;;;;;;;;5090018;28;20485;-69
2022/11/17 02:26:18;;;;;;;15.73;10.38;;;;;;;;;;5091104;28;20128;-70
2022/11/17 02:28:47;;;;;;;16.50;10.55;;;;;;;;;;5081272;28;20090;-69
2022/11/17 02:31:28;;;;;;;16.42;11.68;;;;;;;;;;5080529;28;20051;-69
2022/11/17 02:34:13;;;;;;;13.73;10.88;;;;;;;;;;5082870;28;20635;-69
2022/11/17 02:36:54;;;;;;;17.25;11.50;;;;;;;;;;5078125;28;20052;-68
2022/11/17 02:39:25;;;;;;;16.38;12.25;;;;;;;;;;5078041;28;20044;-69
2022/11/17 02:41:56;;;;;;;15.25;11.55;;;;;;;;;;5081469;28;20039;-69
2022/11/17 02:44:32;;;;;;;19.25;11.82;;;;;;;;;;5080350;28;20501;-69
2022/11/17 02:47:02;;;;;;;16.98;12.13;;;;;;;;;;5084518;28;20517;-69
2022/11/17 02:49:38;;;;;;;17.20;11.55;;;;;;;;;;5082678;28;20135;-69
2022/11/17 02:52:05;;;;;;;15.65;11.35;;;;;;;;;;5074485;28;20555;-68
2022/11/17 02:54:32;;;;;;;13.95;10.25;;;;;;;;;;5088490;28;20040;-69
2022/11/17 02:56:58;;;;;;;13.27;10.93;;;;;;;;;;5079070;28;20068;-69
2022/11/17 02:59:34;;;;;;;19.90;12.85;;;;;;;;;;5081657;28;20087;-68
2022/11/17 03:02:09;;;;;;;15.27;11.00;;;;;;;;;;5083124;28;20122;-68
2022/11/17 03:04:41;;;;;;;16.15;12.10;;;;;;;;;;5103887;27;20058;-69
2022/11/17 03:07:26;;;;;;;16.95;11.15;;;;;;;;;;5118146;27;20044;-69
2022/11/17 03:10:11;;;;;;;19.08;10.75;;;;;;;;;;5123406;27;20061;-68
2022/11/17 03:12:40;;;;;;;15.18;10.38;;;;;;;;;;5124372;27;20594;-70
2022/11/17 03:15:24;;;;;;;13.52;10.02;;;;;;;;;;5122412;27;20042;-68
2022/11/17 03:17:58;;;;;;;13.43;10.98;;;;;;;;;;5123971;27;20159;-69
2022/11/17 03:20:27;;;;;;;16.02;10.73;;;;;;;;;;5125236;27;20035;-68
2022/11/17 03:22:56;;;;;;;18.13;11.73;;;;;;;;;;5125952;27;20027;-68
2022/11/17 03:25:23;;;;;;;12.68;10.85;;;;;;;;;;5126753;27;20031;-68
2022/11/17 03:27:54;;;;;;;15.90;10.98;;;;;;;;;;5118098;27;20396;-68
2022/11/17 03:30:21;;;;;;;15.88;11.55;;;;;;;;;;5099384;27;20047;-68
2022/11/17 03:32:50;;;;;;;13.05;10.75;;;;;;;;;;5123655;27;20152;-68
2022/11/17 03:35:19;;;;;;;15.40;11.00;;;;;;;;;;5128926;27;20035;-68
2022/11/17 03:37:56;;;;;;;14.43;10.57;;;;;;;;;;5120549;27;20209;-67
2022/11/17 03:40:24;;;;;;;14.48;9.57;;;;;;;;;;5125340;27;20047;-68
2022/11/17 03:42:52;;;;;;;12.07;10.15;;;;;;;;;;5124593;27;20058;-70
2022/11/17 03:45:29;;;;;;;12.57;10.07;;;;;;;;;;5115253;27;20035;-68
2022/11/17 03:48:02;;;;;;;12.48;9.93;;;;;;;;;;5114822;27;20039;-68
2022/11/17 03:50:31;;;;;;;13.50;10.85;;;;;;;;;;5119928;27;20031;-68
2022/11/17 03:52:58;;;;;;;15.27;10.60;;;;;;;;;;5117713;27;20036;-69
2022/11/17 03:55:27;;;;;;;13.95;11.07;;;;;;;;;;5121611;27;20095;-68
2022/11/17 03:57:59;;;;;;;15.88;10.05;;;;;;;;;;5105170;27;20032;-68
2022/11/17 04:00:25;;;;;;;14.05;9.98;;;;;;;;;;5122759;27;20256;-68
2022/11/17 04:02:54;;;;;;;16.52;10.55;;;;;;;;;;5103691;28;20046;-68
2022/11/17 04:05:21;;;;;;;14.15;10.27;;;;;;;;;;5121088;27;20051;-68
2022/11/17 04:07:48;;;;;;;13.88;10.65;;;;;;;;;;5123060;27;20062;-68
2022/11/17 04:10:15;;;;;;;14.60;10.90;;;;;;;;;;5126905;27;20616;-68
2022/11/17 04:18:11;;;;;;;12.02;9.63;;;;;;;;;;5119428;27;20519;-68
2022/11/17 04:20:37;;;;;;;12.52;10.07;;;;;;;;;;5127543;27;20480;-67
2022/11/17 04:23:08;;;;;;;12.73;9.68;;;;;;;;;;5121128;27;20069;-68
2022/11/17 04:28:37;;;;;;;15.20;10.60;;;;;;;;;;5123678;27;20504;-69
2022/11/17 04:31:21;;;;;;;14.55;10.07;;;;;;;;;;5114517;27;20039;-69
2022/11/17 04:33:49;;;;;;;12.70;8.98;;;;;;;;;;5117942;27;20074;-68
2022/11/17 04:36:16;;;;;;;15.45;10.00;;;;;;;;;;5122545;27;20035;-68
2022/11/17 04:38:43;;;;;;;14.05;9.80;;;;;;;;;;5118172;28;20558;-69
2022/11/17 04:43:55;;;;;;;11.93;10.45;;;;;;;;;;5115252;28;20586;-68
2022/11/17 04:46:22;;;;;;;14.50;9.68;;;;;;;;;;5100865;28;20095;-68
2022/11/17 04:48:48;;;;;;;11.90;8.77;;;;;;;;;;5106625;28;20042;-68
2022/11/17 04:51:16;;;;;;;10.23;8.13;;;;;;;;;;5123410;28;20572;-69
2022/11/17 04:53:42;;;;;;;11.93;10.15;;;;;;;;;;5121345;28;20461;-70
2022/11/17 04:56:09;;;;;;;10.63;8.00;;;;;;;;;;5118423;28;20070;-69
2022/11/17 04:58:35;;;;;;;11.10;8.93;;;;;;;;;;5123989;28;20507;-69
2022/11/17 05:01:14;;;;;;;11.88;9.40;;;;;;;;;;5120706;28;20435;-69
2022/11/17 05:03:54;;;;;;;12.98;9.18;;;;;;;;;;5115076;28;20146;-69
2022/11/17 05:06:25;;;;;;;10.18;8.68;;;;;;;;;;5117656;28;20050;-70
2022/11/17 05:08:55;;;;;;;11.95;8.98;;;;;;;;;;5105459;28;20048;-69
2022/11/17 05:14:06;;;;;;;11.77;9.05;;;;;;;;;;5118971;28;20095;-69
2022/11/17 05:19:19;;;;;;;10.77;9.13;;;;;;;;;;5121113;28;20035;-69
2022/11/17 05:21:45;;;;;;;12.13;9.52;;;;;;;;;;5125111;28;20039;-69
2022/11/17 05:24:13;;;;;;;13.50;9.50;;;;;;;;;;5105287;28;20488;-69
2022/11/17 05:26:39;;;;;;;10.32;8.57;;;;;;;;;;5122564;28;20376;-69
2022/11/17 05:29:06;;;;;;;12.00;8.73;;;;;;;;;;5126409;28;20039;-69
2022/11/17 05:31:33;;;;;;;13.77;9.65;;;;;;;;;;5123089;28;20046;-69
2022/11/17 05:33:59;;;;;;;11.77;8.65;;;;;;;;;;5121234;28;20043;-69
2022/11/17 05:36:26;;;;;;;11.88;8.98;;;;;;;;;;5122847;28;20035;-69
2022/11/17 05:38:53;;;;;;;11.88;8.38;;;;;;;;;;5120871;27;20036;-69
2022/11/17 05:41:19;;;;;;;12.48;8.57;;;;;;;;;;5125002;27;20035;-69
2022/11/17 05:43:45;;;;;;;12.07;8.63;;;;;;;;;;5118267;27;20027;-70
2022/11/17 05:46:12;;;;;;;10.25;8.43;;;;;;;;;;5118388;27;20041;-70
2022/11/17 05:48:38;;;;;;;9.52;7.75;;;;;;;;;;5118493;27;20036;-69
2022/11/17 05:51:05;;;;;;;11.55;9.25;;;;;;;;;;5105029;27;20047;-69
2022/11/17 05:53:31;;;;;;;15.15;9.02;;;;;;;;;;5125574;27;20043;-69
2022/11/17 05:56:16;;;;;;;11.75;8.88;;;;;;;;;;5120681;27;20031;-70
2022/11/17 05:58:44;;;;;;;12.85;9.10;;;;;;;;;;5126594;27;20130;-69
2022/11/17 06:01:11;;;;;;;12.13;8.48;;;;;;;;;;5124221;27;21392;-69
2022/11/17 06:03:39;;;;;;;11.50;8.48;;;;;;;;;;5099550;28;20052;-69
2022/11/17 06:06:06;;;;;;;10.43;8.32;;;;;;;;;;5088268;28;20137;-69
2022/11/17 06:08:32;;;;;;;11.23;7.88;;;;;;;;;;5084763;28;20440;-69
2022/11/17 06:10:58;;;;;;;10.68;7.78;;;;;;;;;;5092013;28;20046;-70
2022/11/17 06:13:27;;;;;;;12.55;8.35;;;;;;;;;;5086819;28;20040;-69
2022/11/17 06:15:55;;;;;;;9.25;8.00;;;;;;;;;;5085719;28;20040;-69
2022/11/17 06:18:24;;;;;;;10.50;8.38;;;;;;;;;;5086693;28;20126;-69
2022/11/17 06:20:52;;;;;;;9.30;7.45;;;;;;;;;;5080564;28;20306;-69
2022/11/17 06:23:19;;;;;;;10.05;7.80;;;;;;;;;;5079445;28;20089;-69
2022/11/17 06:25:46;;;;;;;9.93;7.82;;;;;;;;;;5083624;28;20556;-69
2022/11/17 06:28:14;;;;;;;8.75;6.82;;;;;;;;;;5074379;28;20137;-68
2022/11/17 06:30:40;;;;;;;10.45;7.43;;;;;;;;;;5082415;28;20511;-70
2022/11/17 06:33:08;;;;;;;8.65;6.88;;;;;;;;;;5084530;28;20088;-69
2022/11/17 06:35:34;;;;;;;9.52;7.55;;;;;;;;;;5082662;28;20186;-70
2022/11/17 06:38:01;;;;;;;8.50;6.63;;;;;;;;;;5082018;28;20523;-69
2022/11/17 06:40:27;;;;;;;10.07;7.05;;;;;;;;;;5076878;28;20127;-69
2022/11/17 06:43:02;;;;;;;9.02;6.63;;;;;;;;;;5086281;28;21157;-69
2022/11/17 06:45:49;;;;;;;10.48;6.32;;;;;;;;;;5075624;28;20028;-69
2022/11/17 06:48:16;;;;;;;10.23;7.30;;;;;;;;;;5082998;28;20456;-69
2022/11/17 06:50:42;;;;;;;7.85;6.32;;;;;;;;;;5087340;28;20075;-69
2022/11/17 06:53:10;;;;;;;7.47;6.30;;;;;;;;;;5082628;28;20125;-69
2022/11/17 06:55:36;;;;;;;8.32;6.85;;;;;;;;;;5084377;28;20805;-69
2022/11/17 06:58:06;;;;;;;8.38;5.95;;;;;;;;;;5084331;28;20032;-69
2022/11/17 07:00:33;;;;;;;8.02;6.63;;;;;;;;;;5089457;28;20044;-69
2022/11/17 07:03:00;;;;;;;9.38;6.38;;;;;;;;;;5085737;27;20047;-69
2022/11/17 07:05:27;;;;;;;8.30;6.30;;;;;;;;;;5108871;27;20039;-69
2022/11/17 07:07:56;;;;;;;7.38;5.63;;;;;;;;;;5127512;27;20092;-69
2022/11/17 07:10:22;;;;;;;9.90;7.03;;;;;;;;;;5120807;27;20476;-69
2022/11/17 07:12:48;;;;;;;6.88;6.15;;;;;;;;;;5125473;27;20035;-69
2022/11/17 07:15:14;;;;;;;8.15;6.05;;;;;;;;;;5128361;27;20541;-69
2022/11/17 07:17:40;;;;;;;7.45;5.88;;;;;;;;;;5124493;27;20374;-69
2022/11/17 07:20:07;;;;;;;7.43;6.45;;;;;;;;;;5127302;27;20043;-69
2022/11/17 07:22:33;;;;;;;9.10;6.00;;;;;;;;;;5125116;27;20062;-69
2022/11/17 07:24:59;;;;;;;8.60;5.78;;;;;;;;;;5126364;27;20508;-69
2022/11/17 07:27:25;;;;;;;6.90;5.18;;;;;;;;;;5124065;27;20070;-69
2022/11/17 07:29:51;;;;;;;6.50;5.55;;;;;;;;;;5125352;27;20046;-69
2022/11/17 07:32:18;;;;;;;6.60;5.72;;;;;;;;;;5109016;27;20070;-68
2022/11/17 07:34:44;;;;;;;9.68;6.18;;;;;;;;;;5128173;27;20038;-67
2022/11/17 07:37:10;;;;;;;7.88;5.72;;;;;;;;;;5124738;27;20122;-67
2022/11/17 07:39:36;;;;;;;8.00;6.35;;;;;;;;;;5109246;27;20031;-67
2022/11/17 07:42:02;;;;;;;7.53;6.10;;;;;;;;;;5109673;27;20345;-68
2022/11/17 07:44:28;;;;;;;10.25;6.03;;;;;;;;;;5125186;27;20047;-67
2022/11/17 07:46:54;;;;;;;7.43;5.82;;;;;;;;;;5119499;27;20039;-67
2022/11/17 07:49:20;;;;;;;7.85;6.22;;;;;;;;;;5125013;27;20122;-68
2022/11/17 07:51:46;;;;;;;8.27;6.30;;;;;;;;;;5103262;27;20572;-67
2022/11/17 07:54:12;;;;;;;8.30;7.00;;;;;;;;;;5127380;27;20400;-67
2022/11/17 07:56:39;;;;;;;8.00;6.20;;;;;;;;;;5109121;27;20035;-67
2022/11/17 07:59:05;;;;;;;7.57;6.20;;;;;;;;;;5113505;27;20035;-67
2022/11/17 08:01:31;;;;;;;6.85;5.38;;;;;;;;;;5120238;27;20039;-67
2022/11/17 08:03:57;;;;;;;7.80;6.78;;;;;;;;;;5122035;27;20050;-67
2022/11/17 08:06:23;;;;;;;6.90;5.30;;;;;;;;;;5124860;27;20046;-67
2022/11/17 08:08:50;;;;;;;8.82;6.35;;;;;;;;;;5104058;28;20483;-67
2022/11/17 08:11:18;;;;;;;7.57;5.78;;;;;;;;;;5124213;27;20183;-67
2022/11/17 08:13:44;;;;;;;8.35;6.35;;;;;;;;;;5123497;27;20408;-68
2022/11/17 08:16:11;;;;;;;8.68;6.07;;;;;;;;;;5123537;27;20086;-68
2022/11/17 08:18:37;;;;;;;7.50;5.93;;;;;;;;;;5121344;27;20039;-68
2022/11/17 08:21:08;;;;;;;7.05;5.82;;;;;;;;;;5123899;27;20047;-67
2022/11/17 08:23:35;;;;;;;8.20;5.97;;;;;;;;;;5105396;27;20043;-68
2022/11/17 08:26:01;;;;;;;7.03;5.75;;;;;;;;;;5120345;27;20085;-67
2022/11/17 08:28:27;;;;;;;6.70;4.95;;;;;;;;;;5117290;27;20118;-67
2022/11/17 08:30:53;;;;;;;7.07;5.50;;;;;;;;;;5116311;27;20074;-67
2022/11/17 08:33:19;;;;;;;7.60;6.25;;;;;;;;;;5096373;27;20037;-68
2022/11/17 08:35:45;;;;;;;6.43;4.95;;;;;;;;;;5099301;28;20046;-67
2022/11/17 08:38:14;;;;;;;6.80;5.03;;;;;;;;;;5103470;28;20031;-67
2022/11/17 08:40:40;;;;;;;7.63;5.70;;;;;;;;;;5116903;28;20088;-67
2022/11/17 08:43:07;;;;;;;7.13;5.80;;;;;;;;;;5118139;28;20039;-67
2022/11/17 08:45:33;;;;;;;6.55;5.25;;;;;;;;;;5105351;28;20328;-67
2022/11/17 08:47:59;;;;;;;6.15;4.78;;;;;;;;;;5122851;28;20467;-68
2022/11/17 08:50:25;;;;;;;6.35;4.80;;;;;;;;;;5124556;28;20476;-67
2022/11/17 08:52:52;;;;;;;5.38;4.30;;;;;;;;;;5104801;28;20043;-68
2022/11/17 08:55:18;;;;;;;7.85;5.25;;;;;;;;;;5120594;28;20071;-67
2022/11/17 08:57:44;;;;;;;6.15;4.97;;;;;;;;;;5099485;28;20039;-68
2022/11/17 09:00:11;;;;;;;6.68;5.38;;;;;;;;;;5122059;28;20043;-67
2022/11/17 09:02:37;;;;;;;6.88;5.25;;;;;;;;;;5119572;28;20043;-68
2022/11/17 09:05:04;;;;;;;7.28;5.15;;;;;;;;;;5123372;28;20150;-67
2022/11/17 09:07:33;;;;;;;6.20;4.80;;;;;;;;;;5104818;28;20074;-67
2022/11/17 09:10:00;;;;;;;6.20;4.97;;;;;;;;;;5122433;28;20504;-67
2022/11/17 09:12:26;;;;;;;7.05;4.95;;;;;;;;;;5122187;27;20545;-67
2022/11/17 09:14:52;;;;;;;6.65;5.10;;;;;;;;;;5126258;27;20050;-67
2022/11/17 09:17:18;;;;;;;7.03;5.22;;;;;;;;;;5127505;27;20039;-67
2022/11/17 09:19:44;;;;;;;6.50;5.22;;;;;;;;;;5126138;27;20230;-67
2022/11/17 09:22:10;;;;;;;6.72;5.22;;;;;;;;;;5108799;27;20039;-67
2022/11/17 09:24:36;;;;;;;5.80;4.35;;;;;;;;;;5125771;27;20035;-67
2022/11/17 09:27:03;;;;;;;6.80;4.75;;;;;;;;;;5125971;27;20047;-67
2022/11/17 09:29:29;;;;;;;7.43;5.03;;;;;;;;;;5127601;27;20035;-68
2022/11/17 09:31:56;;;;;;;7.57;4.85;;;;;;;;;;5125615;27;20129;-67
2022/11/17 09:34:22;;;;;;;6.03;4.80;;;;;;;;;;5125925;27;20057;-67
2022/11/17 09:36:49;;;;;;;7.38;5.00;;;;;;;;;;5127717;27;20420;-67
2022/11/17 09:39:15;;;;;;;5.72;4.53;;;;;;;;;;5091562;27;20043;-67
2022/11/17 09:41:43;;;;;;;7.00;5.55;;;;;;;;;;5109213;27;20444;-68
2022/11/17 09:44:15;;;;;;;7.20;5.25;;;;;;;;;;5126126;27;20081;-67
2022/11/17 09:47:01;;;;;;;8.23;5.25;;;;;;;;;;5120488;27;20046;-67
2022/11/17 09:49:30;;;;;;;8.07;4.97;;;;;;;;;;5115070;27;20055;-67
2022/11/17 09:51:59;;;;;;;6.57;4.97;;;;;;;;;;5124537;27;20038;-67
2022/11/17 09:54:25;;;;;;;7.68;5.40;;;;;;;;;;5115926;27;20114;-68
2022/11/17 09:56:53;;;;;;;6.18;5.15;;;;;;;;;;5121422;27;20088;-67
2022/11/17 09:59:20;;;;;;;7.90;5.85;;;;;;;;;;5104213;27;20067;-67
2022/11/17 10:01:47;;;;;;;5.47;4.85;;;;;;;;;;5122959;27;20122;-67
2022/11/17 10:04:15;;;;;;;7.80;4.95;;;;;;;;;;5126517;27;20125;-67
2022/11/17 10:06:42;;;;;;;7.57;4.97;;;;;;;;;;5125656;27;20053;-67
2022/11/17 10:09:19;;;;;;;7.07;5.43;;;;;;;;;;5125224;27;20031;-67
2022/11/17 10:11:46;;;;;;;5.30;4.68;;;;;;;;;;5126415;27;20031;-67
2022/11/17 10:14:16;;;;;;;5.28;4.43;;;;;;;;;;5124055;27;20046;-67
2022/11/17 10:16:51;;;;;;;5.40;3.85;;;;;;;;;;5125258;27;20457;-68
2022/11/17 10:19:17;;;;;;;5.22;3.95;;;;;;;;;;5119394;27;20043;-67
2022/11/17 10:21:44;;;;;;;5.28;4.03;;;;;;;;;;5124277;27;20035;-67
2022/11/17 10:24:10;;;;;;;5.80;4.07;;;;;;;;;;5125042;27;20039;-67
2022/11/17 10:26:46;;;;;;;5.90;5.05;;;;;;;;;;5124477;27;20071;-67
2022/11/17 10:29:13;;;;;;;5.80;4.25;;;;;;;;;;5126410;27;20030;-68
2022/11/17 10:31:44;;;;;;;5.00;4.00;;;;;;;;;;5119059;27;20047;-67
2022/11/17 10:34:11;;;;;;;7.07;4.20;;;;;;;;;;5125514;27;20047;-67
2022/11/17 10:36:44;;;;;;;5.65;4.35;;;;;;;;;;5109101;27;20046;-67
2022/11/17 10:39:10;;;;;;;;;;;;;;;;;;5105144;27;20519;-67
2022/11/17 10:41:38;;;;;;;4.18;3.50;;;;;;;;;;5126389;27;19919;-67
2022/11/17 10:44:24;;;;;;;5.90;4.45;;;;;;;;;;5123486;27;20049;-67
2022/11/17 10:46:54;;;;;;;4.60;3.58;;;;;;;;;;5107157;27;20050;-67
2022/11/17 10:49:33;;;;;;;6.80;4.07;;;;;;;;;;5103003;27;20047;-67
2022/11/17 10:52:14;;;;;;;5.47;4.13;;;;;;;;;;5124722;27;20046;-67
2022/11/17 10:54:40;;;;;;;4.60;3.95;;;;;;;;;;5123290;27;20035;-67
2022/11/17 10:57:08;;;;;;;4.70;3.50;;;;;;;;;;5122062;27;20063;-67
2022/11/17 10:59:51;;;;;;;5.10;3.80;;;;;;;;;;5118194;27;20096;-67
2022/11/17 11:02:40;;;;;;;5.25;3.70;;;;;;;;;;5122321;27;20507;-67
2022/11/17 11:05:08;;;;;;;4.78;3.95;;;;;;;;;;5106732;27;20136;-67
2022/11/17 11:07:34;;;;;;;5.53;3.63;;;;;;;;;;5124504;27;20034;-68
2022/11/17 11:10:01;;;;;;;5.47;4.22;;;;;;;;;;5125532;27;20094;-67
2022/11/17 11:12:32;;;;;;;4.97;3.90;;;;;;;;;;5124279;27;20058;-68
2022/11/17 11:14:59;;;;;;;5.78;3.65;;;;;;;;;;5107318;27;20042;-67
2022/11/17 11:17:27;;;;;;;6.53;4.18;;;;;;;;;;5103223;28;20050;-67
2022/11/17 11:19:54;;;;;;;4.85;3.70;;;;;;;;;;5116029;27;20461;-67
2022/11/17 11:22:38;;;;;;;4.93;3.70;;;;;;;;;;5121458;27;20039;-67
2022/11/17 11:25:24;;;;;;;3.75;3.33;;;;;;;;;;5105175;28;20071;-67
2022/11/17 11:27:56;;;;;;;6.47;4.57;;;;;;;;;;5110759;27;20173;-67
2022/11/17 11:30:22;;;;;;;6.55;4.28;;;;;;;;;;5104467;27;20043;-67
2022/11/17 11:32:51;;;;;;;5.70;4.32;;;;;;;;;;5121685;27;20043;-67
2022/11/17 11:35:27;;;;;;;5.05;4.00;;;;;;;;;;5125244;27;20133;-67
2022/11/17 11:38:00;;;;;;;5.93;4.18;;;;;;;;;;5123438;27;20069;-67
2022/11/17 11:40:28;;;;;;;4.45;3.20;;;;;;;;;;5123085;27;20247;-67
2022/11/17 11:42:58;;;;;;;5.63;4.32;;;;;;;;;;5121871;27;20035;-67
2022/11/17 11:45:43;;;;;;;6.90;3.80;;;;;;;;;;5120281;27;20067;-67
2022/11/17 11:48:15;;;;;;;4.65;3.45;;;;;;;;;;5124289;27;20054;-67
2022/11/17 11:51:03;;;;;;;6.90;4.07;;;;;;;;;;5104158;27;20129;-67
2022/11/17 11:53:42;;;;;;;4.50;3.08;;;;;;;;;;5106800;27;20472;-67
2022/11/17 11:56:16;;;;;;;6.45;3.33;;;;;;;;;;5122232;27;20507;-67
2022/11/17 11:59:02;;;;;;;4.55;3.00;;;;;;;;;;5105225;27;20038;-67
2022/11/17 12:01:31;;;;;;;4.50;3.15;;;;;;;;;;5069081;27;20039;-67
2022/11/17 12:04:12;;;;;;;4.75;3.35;;;;;;;;;;5106168;27;20090;-67
2022/11/17 12:06:41;;;;;;;4.45;3.17;;;;;;;;;;5119146;27;20042;-67
2022/11/17 12:09:16;;;;;;;5.43;2.85;;;;;;;;;;5118858;27;20158;-67
2022/11/17 12:12:01;;;;;;;3.55;2.75;;;;;;;;;;5123793;27;20115;-67
2022/11/17 12:14:31;;;;;;;5.07;3.13;;;;;;;;;;5124660;27;20039;-67
2022/11/17 12:17:03;;;;;;;4.80;2.70;;;;;;;;;;5126711;27;20050;-67
2022/11/17 12:19:52;;;;;;;4.13;2.85;;;;;;;;;;5104227;27;20039;-67
2022/11/17 12:22:21;;;;;;;4.63;2.75;;;;;;;;;;5122263;27;20643;-67
2022/11/17 12:24:47;;;;;;;6.65;3.20;;;;;;;;;;5124239;27;20508;-67
2022/11/17 12:27:32;;;;;;;5.30;3.17;;;;;;;;;;5107325;28;20031;-67
2022/11/17 12:29:58;;;;;;;4.72;3.15;;;;;;;;;;5125033;27;20035;-67
2022/11/17 12:32:56;;;;;;;4.85;2.95;;;;;;;;;;5124827;27;20038;-67
2022/11/17 12:35:29;;;;;;;3.90;3.10;;;;;;;;;;5089933;27;20512;-67
2022/11/17 12:38:14;;;;;;;6.28;3.90;;;;;;;;;;5119957;27;20151;-67
2022/11/17 12:40:44;;;;;;;4.75;3.30;;;;;;;;;;5125584;28;20082;-67
2022/11/17 12:43:16;;;;;;;4.88;2.90;;;;;;;;;;5122983;28;20492;-67
2022/11/17 12:45:54;;;;;;;4.28;3.13;;;;;;;;;;5125373;28;20035;-67
2022/11/17 12:48:23;;;;;;;3.88;2.78;;;;;;;;;;5108296;27;20066;-67
2022/11/17 12:51:05;;;;;;;3.97;2.80;;;;;;;;;;5127348;27;20610;-67
2022/11/17 12:53:37;;;;;;;3.88;2.83;;;;;;;;;;5126398;27;20043;-67
2022/11/17 12:56:26;;;;;;;4.40;3.28;;;;;;;;;;5126985;27;20071;-67
2022/11/17 12:58:55;;;;;;;6.32;3.40;;;;;;;;;;5116390;27;20139;-67
2022/11/17 13:01:37;;;;;;;4.25;3.20;;;;;;;;;;5127218;27;20046;-67
2022/11/17 13:04:14;;;;;;;4.70;3.08;;;;;;;;;;5119417;27;20101;-67
2022/11/17 13:07:00;;;;;;;4.10;3.00;;;;;;;;;;5107491;27;20047;-67
2022/11/17 13:09:28;;;;;;;3.80;2.92;;;;;;;;;;5122822;27;20042;-67
2022/11/17 13:11:59;;;;;;;3.78;2.60;;;;;;;;;;5126908;27;20034;-67
2022/11/17 13:14:25;;;;;;;4.53;3.50;;;;;;;;;;5126641;27;20046;-67
2022/11/17 13:16:51;;;;;;;4.28;3.40;;;;;;;;;;5129382;27;20065;-67
2022/11/17 13:19:36;;;;;;;5.53;2.80;;;;;;;;;;5125333;27;20039;-67
2022/11/17 13:22:12;;;;;;;4.57;3.03;;;;;;;;;;5123489;27;20038;-67
2022/11/17 13:24:39;;;;;;;7.22;3.10;;;;;;;;;;5105967;27;21430;-67
2022/11/17 13:27:07;;;;;;;6.07;3.80;;;;;;;;;;5121573;27;20043;-67
2022/11/17 13:29:33;;;;;;;5.28;3.30;;;;;;;;;;5110580;27;20050;-68
2022/11/17 13:32:29;;;;;;;5.65;3.63;;;;;;;;;;5108428;27;20077;-68
2022/11/17 13:34:58;;;;;;;4.43;3.42;;;;;;;;;;5108717;27;20051;-67
2022/11/17 13:37:29;;;;;;;5.68;3.35;;;;;;;;;;5127688;27;20051;-67
2022/11/17 13:40:00;;;;;;;5.60;3.72;;;;;;;;;;5129845;27;20992;-67
2022/11/17 13:42:27;;;;;;;5.55;3.58;;;;;;;;;;5123593;27;20039;-67
2022/11/17 13:44:54;;;;;;;4.00;3.28;;;;;;;;;;5125033;27;20395;-67
2022/11/17 13:47:21;;;;;;;4.97;3.60;;;;;;;;;;5127833;27;20053;-67
2022/11/17 13:49:47;;;;;;;5.82;3.78;;;;;;;;;;5125694;27;20072;-67
2022/11/17 13:52:33;;;;;;;6.72;3.90;;;;;;;;;;5125281;27;20099;-67
2022/11/17 13:54:59;;;;;;;4.40;3.25;;;;;;;;;;5124107;27;20067;-67
2022/11/17 13:57:27;;;;;;;5.47;4.18;;;;;;;;;;5123686;27;20050;-67
2022/11/17 13:59:54;;;;;;;5.45;3.88;;;;;;;;;;5120792;27;20039;-67
2022/11/17 14:02:23;;;;;;;6.60;3.63;;;;;;;;;;5125003;27;20031;-67
2022/11/17 14:05:20;;;;;;;4.60;3.55;;;;;;;;;;5125601;27;20043;-67
2022/11/17 14:07:48;;;;;;;5.30;3.50;;;;;;;;;;5123844;27;20043;-67
2022/11/17 14:10:26;;;;;;;4.57;3.65;;;;;;;;;;5125738;27;20035;-67
2022/11/17 14:12:52;;;;;;;5.60;4.05;;;;;;;;;;5125723;27;20051;-67
2022/11/17 14:15:33;;;;;;;4.07;3.63;;;;;;;;;;5124390;27;20550;-67
2022/11/17 14:18:01;;;;;;;5.30;4.20;;;;;;;;;;5123556;27;20050;-67
2022/11/17 14:20:34;;;;;;;5.82;5.00;;;;;;;;;;5125892;27;20144;-67
2022/11/17 14:23:07;;;;;;;5.75;4.13;;;;;;;;;;5124944;27;20122;-67
2022/11/17 14:25:38;;;;;;;5.45;4.40;;;;;;;;;;5123938;27;20480;-67
2022/11/17 14:28:04;;;;;;;4.85;4.25;;;;;;;;;;5117228;27;20510;-67
2022/11/17 14:30:30;;;;;;;4.85;3.88;;;;;;;;;;5124291;27;20272;-67
2022/11/17 14:32:56;;;;;;;9.70;4.95;;;;;;;;;;5122357;27;20066;-68
2022/11/17 14:35:22;;;;;;;8.70;4.53;;;;;;;;;;5126377;27;20038;-67
2022/11/17 14:37:48;;;;;;;6.43;4.25;;;;;;;;;;5108465;27;20050;-67
2022/11/17 14:40:16;;;;;;;6.63;4.07;;;;;;;;;;5123667;27;20032;-67
2022/11/17 14:42:43;;;;;;;6.07;3.92;;;;;;;;;;5127355;27;20332;-67
2022/11/17 14:45:13;;;;;;;6.40;3.50;;;;;;;;;;5124452;27;20488;-67
2022/11/17 14:47:40;;;;;;;6.07;3.15;;;;;;;;;;5126251;27;20141;-67
2022/11/17 14:50:07;;;;;;;10.00;3.38;;;;;;;;;;5091754;27;20049;-67
2022/11/17 14:52:33;;;;;;;5.38;3.00;;;;;;;;;;5108371;27;20035;-67
2022/11/17 14:54:59;;;;;;;4.93;2.30;;;;;;;;;;5125783;27;20073;-67
2022/11/17 14:57:25;;;;;;;3.67;2.30;;;;;;;;;;5124690;27;20092;-67
2022/11/17 14:59:51;;;;;;;5.22;2.10;;;;;;;;;;5126698;27;21439;-68
2022/11/17 15:02:18;;;;;;;4.78;2.28;;;;;;;;;;5124588;27;20035;-67
2022/11/17 15:04:44;;;;;;;9.13;2.83;;;;;;;;;;5123842;27;20054;-67
2022/11/17 15:07:10;;;;;;;6.63;2.35;;;;;;;;;;5072814;27;20111;-68
2022/11/17 15:09:36;;;;;;;7.32;2.53;;;;;;;;;;5123453;27;20035;-67
2022/11/17 15:12:02;;;;;;;4.07;2.50;;;;;;;;;;5121698;27;20369;-67